sensor_id;sensor_type;location;lat;lon;timestamp;temperature;humidity
42833;DHT22;64089;51.478;5.692;2024-03-06T00:01:43;4.40;99.90
42833;DHT22;64089;51.478;5.692;2024-03-06T00:04:08;4.40;99.90
42833;DHT22;64089;51.478;5.692;2024-03-06T00:06:34;4.40;99.90
42833;DHT22;64089;51.478;5.692;2024-03-06T00:09:00;4.50;99.90
42833;DHT22;64089;51.478;5.692;2024-03-06T00:11:27;4.50;99.90
42833;DHT22;64089;51.478;5.692;2024-03-06T00:13:53;4.50;99.90
42833;DHT22;64089;51.478;5.692;2024-03-06T00:16:20;4.60;99.90
42833;DHT22;64089;51.478;5.692;2024-03-06T00:18:46;4.70;99.90
42833;DHT22;64089;51.478;5.692;2024-03-06T00:21:12;4.70;99.90
42833;DHT22;64089;51.478;5.692;2024-03-06T00:23:38;4.70;99.90
42833;DHT22;64089;51.478;5.692;2024-03-06T00:26:04;4.80;99.90
42833;DHT22;64089;51.478;5.692;2024-03-06T00:28:30;4.90;99.90
42833;DHT22;64089;51.478;5.692;2024-03-06T00:30:55;4.90;99.90
42833;DHT22;64089;51.478;5.692;2024-03-06T00:33:22;4.90;99.90
42833;DHT22;64089;51.478;5.692;2024-03-06T00:35:47;4.90;99.90
42833;DHT22;64089;51.478;5.692;2024-03-06T00:38:13;4.90;99.90
42833;DHT22;64089;51.478;5.692;2024-03-06T00:40:39;5.00;99.90
42833;DHT22;64089;51.478;5.692;2024-03-06T00:43:05;5.00;99.90
42833;DHT22;64089;51.478;5.692;2024-03-06T00:45:31;5.00;99.90
42833;DHT22;64089;51.478;5.692;2024-03-06T00:47:57;5.00;99.90
42833;DHT22;64089;51.478;5.692;2024-03-06T00:50:23;4.90;99.90
42833;DHT22;64089;51.478;5.692;2024-03-06T00:52:49;4.90;99.90
42833;DHT22;64089;51.478;5.692;2024-03-06T00:55:14;4.90;99.90
42833;DHT22;64089;51.478;5.692;2024-03-06T00:57:40;4.90;99.90
42833;DHT22;64089;51.478;5.692;2024-03-06T01:00:06;4.80;99.90
42833;DHT22;64089;51.478;5.692;2024-03-06T01:02:39;4.80;99.90
42833;DHT22;64089;51.478;5.692;2024-03-06T01:05:05;4.80;99.90
42833;DHT22;64089;51.478;5.692;2024-03-06T01:07:33;4.70;99.90
42833;DHT22;64089;51.478;5.692;2024-03-06T01:09:59;4.70;99.90
42833;DHT22;64089;51.478;5.692;2024-03-06T01:12:25;4.60;99.90
42833;DHT22;64089;51.478;5.692;2024-03-06T01:14:50;4.50;99.90
42833;DHT22;64089;51.478;5.692;2024-03-06T01:17:16;4.50;99.90
42833;DHT22;64089;51.478;5.692;2024-03-06T01:19:42;4.40;99.90
42833;DHT22;64089;51.478;5.692;2024-03-06T01:22:11;4.40;99.90
42833;DHT22;64089;51.478;5.692;2024-03-06T01:24:40;4.40;99.90
42833;DHT22;64089;51.478;5.692;2024-03-06T01:27:06;4.40;99.90
42833;DHT22;64089;51.478;5.692;2024-03-06T01:29:32;4.30;99.90
42833;DHT22;64089;51.478;5.692;2024-03-06T01:31:58;4.20;99.90
42833;DHT22;64089;51.478;5.692;2024-03-06T01:34:25;4.20;99.90
42833;DHT22;64089;51.478;5.692;2024-03-06T01:36:51;4.10;99.90
42833;DHT22;64089;51.478;5.692;2024-03-06T01:39:17;4.00;99.90
42833;DHT22;64089;51.478;5.692;2024-03-06T01:41:46;4.00;99.90
42833;DHT22;64089;51.478;5.692;2024-03-06T01:44:13;4.10;99.90
42833;DHT22;64089;51.478;5.692;2024-03-06T01:46:39;4.10;99.90
42833;DHT22;64089;51.478;5.692;2024-03-06T01:49:04;4.10;99.90
42833;DHT22;64089;51.478;5.692;2024-03-06T01:51:31;4.00;99.90
42833;DHT22;64089;51.478;5.692;2024-03-06T01:53:58;4.00;99.90
42833;DHT22;64089;51.478;5.692;2024-03-06T01:56:25;4.00;99.90
42833;DHT22;64089;51.478;5.692;2024-03-06T01:58:53;3.90;99.90
42833;DHT22;64089;51.478;5.692;2024-03-06T02:01:19;3.90;99.90
42833;DHT22;64089;51.478;5.692;2024-03-06T02:03:47;3.80;99.90
42833;DHT22;64089;51.478;5.692;2024-03-06T02:06:14;3.80;99.90
42833;DHT22;64089;51.478;5.692;2024-03-06T02:08:41;3.80;99.90
42833;DHT22;64089;51.478;5.692;2024-03-06T02:11:06;3.80;99.90
42833;DHT22;64089;51.478;5.692;2024-03-06T02:13:33;3.70;99.90
42833;DHT22;64089;51.478;5.692;2024-03-06T02:15:59;3.70;99.90
42833;DHT22;64089;51.478;5.692;2024-03-06T02:18:25;3.70;99.90
42833;DHT22;64089;51.478;5.692;2024-03-06T02:20:51;3.60;99.90
42833;DHT22;64089;51.478;5.692;2024-03-06T02:23:16;3.50;99.90
42833;DHT22;64089;51.478;5.692;2024-03-06T02:25:46;3.50;99.90
42833;DHT22;64089;51.478;5.692;2024-03-06T02:28:12;3.50;99.90
42833;DHT22;64089;51.478;5.692;2024-03-06T02:30:39;3.40;99.90
42833;DHT22;64089;51.478;5.692;2024-03-06T02:33:07;3.40;99.90
42833;DHT22;64089;51.478;5.692;2024-03-06T02:35:33;3.40;99.90
42833;DHT22;64089;51.478;5.692;2024-03-06T02:38:00;3.40;99.90
42833;DHT22;64089;51.478;5.692;2024-03-06T02:40:26;3.30;99.90
42833;DHT22;64089;51.478;5.692;2024-03-06T02:42:52;3.30;99.90
42833;DHT22;64089;51.478;5.692;2024-03-06T02:45:18;3.30;99.90
42833;DHT22;64089;51.478;5.692;2024-03-06T02:47:44;3.30;99.90
42833;DHT22;64089;51.478;5.692;2024-03-06T02:50:10;3.30;99.90
42833;DHT22;64089;51.478;5.692;2024-03-06T02:52:36;3.20;99.90
42833;DHT22;64089;51.478;5.692;2024-03-06T02:55:02;3.20;99.90
42833;DHT22;64089;51.478;5.692;2024-03-06T02:57:27;3.20;99.90
42833;DHT22;64089;51.478;5.692;2024-03-06T02:59:57;3.10;99.90
42833;DHT22;64089;51.478;5.692;2024-03-06T03:02:23;3.10;99.90
42833;DHT22;64089;51.478;5.692;2024-03-06T03:04:49;3.20;99.90
42833;DHT22;64089;51.478;5.692;2024-03-06T03:07:15;3.10;99.90
42833;DHT22;64089;51.478;5.692;2024-03-06T03:09:41;3.10;99.90
42833;DHT22;64089;51.478;5.692;2024-03-06T03:12:06;3.00;99.90
42833;DHT22;64089;51.478;5.692;2024-03-06T03:14:32;3.00;99.90
42833;DHT22;64089;51.478;5.692;2024-03-06T03:17:00;3.00;99.90
42833;DHT22;64089;51.478;5.692;2024-03-06T03:19:25;3.00;99.90
42833;DHT22;64089;51.478;5.692;2024-03-06T03:21:51;3.00;99.90
42833;DHT22;64089;51.478;5.692;2024-03-06T03:24:17;3.00;99.90
42833;DHT22;64089;51.478;5.692;2024-03-06T03:26:45;3.00;99.90
42833;DHT22;64089;51.478;5.692;2024-03-06T03:29:11;3.00;99.90
42833;DHT22;64089;51.478;5.692;2024-03-06T03:31:37;3.10;99.90
42833;DHT22;64089;51.478;5.692;2024-03-06T03:34:05;3.00;99.90
42833;DHT22;64089;51.478;5.692;2024-03-06T03:36:30;3.00;99.90
42833;DHT22;64089;51.478;5.692;2024-03-06T03:38:56;3.00;99.90
42833;DHT22;64089;51.478;5.692;2024-03-06T03:41:22;2.90;99.90
42833;DHT22;64089;51.478;5.692;2024-03-06T03:43:48;2.90;99.90
42833;DHT22;64089;51.478;5.692;2024-03-06T03:46:14;2.90;99.90
42833;DHT22;64089;51.478;5.692;2024-03-06T03:48:40;2.90;99.90
42833;DHT22;64089;51.478;5.692;2024-03-06T03:51:06;2.90;99.90
42833;DHT22;64089;51.478;5.692;2024-03-06T03:53:35;2.80;99.90
42833;DHT22;64089;51.478;5.692;2024-03-06T03:56:01;2.80;99.90
42833;DHT22;64089;51.478;5.692;2024-03-06T03:58:27;2.80;99.90
42833;DHT22;64089;51.478;5.692;2024-03-06T04:00:53;2.80;99.90
42833;DHT22;64089;51.478;5.692;2024-03-06T04:03:20;2.80;99.90
42833;DHT22;64089;51.478;5.692;2024-03-06T04:05:47;2.80;99.90
42833;DHT22;64089;51.478;5.692;2024-03-06T04:08:12;2.70;99.90
42833;DHT22;64089;51.478;5.692;2024-03-06T04:10:39;2.70;99.90
42833;DHT22;64089;51.478;5.692;2024-03-06T04:13:04;2.70;99.90
42833;DHT22;64089;51.478;5.692;2024-03-06T04:15:30;2.60;99.90
42833;DHT22;64089;51.478;5.692;2024-03-06T04:17:56;2.60;99.90
42833;DHT22;64089;51.478;5.692;2024-03-06T04:20:22;2.60;99.90
42833;DHT22;64089;51.478;5.692;2024-03-06T04:22:47;2.60;99.90
42833;DHT22;64089;51.478;5.692;2024-03-06T04:25:15;2.60;99.90
42833;DHT22;64089;51.478;5.692;2024-03-06T04:27:41;2.60;99.90
42833;DHT22;64089;51.478;5.692;2024-03-06T04:30:07;2.70;99.90
42833;DHT22;64089;51.478;5.692;2024-03-06T04:32:33;2.70;99.90
42833;DHT22;64089;51.478;5.692;2024-03-06T04:34:58;2.70;99.90
42833;DHT22;64089;51.478;5.692;2024-03-06T04:37:24;2.70;99.90
42833;DHT22;64089;51.478;5.692;2024-03-06T04:39:52;2.70;99.90
42833;DHT22;64089;51.478;5.692;2024-03-06T04:42:18;2.70;99.90
42833;DHT22;64089;51.478;5.692;2024-03-06T04:44:45;2.70;99.90
42833;DHT22;64089;51.478;5.692;2024-03-06T04:47:11;2.80;99.90
42833;DHT22;64089;51.478;5.692;2024-03-06T04:49:36;2.80;99.90
42833;DHT22;64089;51.478;5.692;2024-03-06T04:52:02;2.70;99.90
42833;DHT22;64089;51.478;5.692;2024-03-06T04:54:29;2.70;99.90
42833;DHT22;64089;51.478;5.692;2024-03-06T04:56:55;2.80;99.90
42833;DHT22;64089;51.478;5.692;2024-03-06T04:59:21;2.80;99.90
42833;DHT22;64089;51.478;5.692;2024-03-06T05:01:46;2.80;99.90
42833;DHT22;64089;51.478;5.692;2024-03-06T05:04:12;2.80;99.90
42833;DHT22;64089;51.478;5.692;2024-03-06T05:06:38;2.90;99.90
42833;DHT22;64089;51.478;5.692;2024-03-06T05:09:04;2.90;99.90
42833;DHT22;64089;51.478;5.692;2024-03-06T05:11:31;2.80;99.90
42833;DHT22;64089;51.478;5.692;2024-03-06T05:14:00;2.80;99.90
42833;DHT22;64089;51.478;5.692;2024-03-06T05:16:26;2.70;99.90
42833;DHT22;64089;51.478;5.692;2024-03-06T05:18:52;2.70;99.90
42833;DHT22;64089;51.478;5.692;2024-03-06T05:21:18;2.70;99.90
42833;DHT22;64089;51.478;5.692;2024-03-06T05:23:44;2.60;99.90
42833;DHT22;64089;51.478;5.692;2024-03-06T05:26:09;2.60;99.90
42833;DHT22;64089;51.478;5.692;2024-03-06T05:28:35;2.60;99.90
42833;DHT22;64089;51.478;5.692;2024-03-06T05:31:01;2.60;99.90
42833;DHT22;64089;51.478;5.692;2024-03-06T05:33:26;2.60;99.90
42833;DHT22;64089;51.478;5.692;2024-03-06T05:35:54;2.60;99.90
42833;DHT22;64089;51.478;5.692;2024-03-06T05:38:20;2.60;99.90
42833;DHT22;64089;51.478;5.692;2024-03-06T05:40:47;2.60;99.90
42833;DHT22;64089;51.478;5.692;2024-03-06T05:43:13;2.60;99.90
42833;DHT22;64089;51.478;5.692;2024-03-06T05:45:39;2.50;99.90
42833;DHT22;64089;51.478;5.692;2024-03-06T05:48:04;2.50;99.90
42833;DHT22;64089;51.478;5.692;2024-03-06T05:50:30;2.50;99.90
42833;DHT22;64089;51.478;5.692;2024-03-06T05:52:57;2.40;99.90
42833;DHT22;64089;51.478;5.692;2024-03-06T05:55:23;2.30;99.90
42833;DHT22;64089;51.478;5.692;2024-03-06T05:57:48;2.30;99.90
42833;DHT22;64089;51.478;5.692;2024-03-06T06:00:15;2.30;99.90
42833;DHT22;64089;51.478;5.692;2024-03-06T06:02:43;2.30;99.90
42833;DHT22;64089;51.478;5.692;2024-03-06T06:05:10;2.20;99.90
42833;DHT22;64089;51.478;5.692;2024-03-06T06:07:36;2.20;99.90
42833;DHT22;64089;51.478;5.692;2024-03-06T06:10:04;2.10;99.90
42833;DHT22;64089;51.478;5.692;2024-03-06T06:12:31;2.10;99.90
42833;DHT22;64089;51.478;5.692;2024-03-06T06:14:57;2.10;99.90
42833;DHT22;64089;51.478;5.692;2024-03-06T06:17:22;2.10;99.90
42833;DHT22;64089;51.478;5.692;2024-03-06T06:19:48;2.20;99.90
42833;DHT22;64089;51.478;5.692;2024-03-06T06:22:14;2.10;99.90
42833;DHT22;64089;51.478;5.692;2024-03-06T06:24:39;2.10;99.90
42833;DHT22;64089;51.478;5.692;2024-03-06T06:27:06;2.20;99.90
42833;DHT22;64089;51.478;5.692;2024-03-06T06:29:31;2.20;99.90
42833;DHT22;64089;51.478;5.692;2024-03-06T06:31:57;2.20;99.90
42833;DHT22;64089;51.478;5.692;2024-03-06T06:34:23;2.20;99.90
42833;DHT22;64089;51.478;5.692;2024-03-06T06:36:53;2.20;99.90
42833;DHT22;64089;51.478;5.692;2024-03-06T06:39:18;2.20;99.90
42833;DHT22;64089;51.478;5.692;2024-03-06T06:41:44;2.20;99.90
42833;DHT22;64089;51.478;5.692;2024-03-06T06:44:10;2.30;99.90
42833;DHT22;64089;51.478;5.692;2024-03-06T06:46:35;2.30;99.90
42833;DHT22;64089;51.478;5.692;2024-03-06T06:49:01;2.30;99.90
42833;DHT22;64089;51.478;5.692;2024-03-06T06:51:27;2.30;99.90
42833;DHT22;64089;51.478;5.692;2024-03-06T06:53:52;2.40;99.90
42833;DHT22;64089;51.478;5.692;2024-03-06T06:56:18;2.40;99.90
42833;DHT22;64089;51.478;5.692;2024-03-06T06:58:43;2.40;99.90
42833;DHT22;64089;51.478;5.692;2024-03-06T07:01:09;2.50;99.90
42833;DHT22;64089;51.478;5.692;2024-03-06T07:03:35;2.60;99.90
42833;DHT22;64089;51.478;5.692;2024-03-06T07:06:01;2.70;99.90
42833;DHT22;64089;51.478;5.692;2024-03-06T07:08:28;2.70;99.90
42833;DHT22;64089;51.478;5.692;2024-03-06T07:10:55;2.80;99.90
42833;DHT22;64089;51.478;5.692;2024-03-06T07:13:20;2.90;99.90
42833;DHT22;64089;51.478;5.692;2024-03-06T07:15:46;2.90;99.90
42833;DHT22;64089;51.478;5.692;2024-03-06T07:18:12;2.90;99.90
42833;DHT22;64089;51.478;5.692;2024-03-06T07:20:40;3.00;99.90
42833;DHT22;64089;51.478;5.692;2024-03-06T07:23:06;3.00;99.90
42833;DHT22;64089;51.478;5.692;2024-03-06T07:25:32;3.00;99.90
42833;DHT22;64089;51.478;5.692;2024-03-06T07:27:57;3.10;99.90
42833;DHT22;64089;51.478;5.692;2024-03-06T07:30:23;3.30;99.90
42833;DHT22;64089;51.478;5.692;2024-03-06T07:32:49;3.60;99.90
42833;DHT22;64089;51.478;5.692;2024-03-06T07:35:14;3.90;99.90
42833;DHT22;64089;51.478;5.692;2024-03-06T07:37:40;4.00;99.90
42833;DHT22;64089;51.478;5.692;2024-03-06T07:40:07;4.20;99.90
42833;DHT22;64089;51.478;5.692;2024-03-06T07:42:35;4.20;99.90
42833;DHT22;64089;51.478;5.692;2024-03-06T07:45:00;4.10;99.90
42833;DHT22;64089;51.478;5.692;2024-03-06T07:47:26;4.20;99.90
42833;DHT22;64089;51.478;5.692;2024-03-06T07:49:52;4.30;99.90
42833;DHT22;64089;51.478;5.692;2024-03-06T07:52:17;4.50;99.90
42833;DHT22;64089;51.478;5.692;2024-03-06T07:54:43;4.70;99.90
42833;DHT22;64089;51.478;5.692;2024-03-06T07:57:09;5.00;99.90
42833;DHT22;64089;51.478;5.692;2024-03-06T07:59:35;5.20;99.90
42833;DHT22;64089;51.478;5.692;2024-03-06T08:02:01;5.40;99.90
42833;DHT22;64089;51.478;5.692;2024-03-06T08:04:26;5.60;99.90
42833;DHT22;64089;51.478;5.692;2024-03-06T08:06:52;5.70;99.90
42833;DHT22;64089;51.478;5.692;2024-03-06T08:09:18;5.80;99.90
42833;DHT22;64089;51.478;5.692;2024-03-06T08:11:45;5.80;99.90
42833;DHT22;64089;51.478;5.692;2024-03-06T08:14:11;5.90;99.90
42833;DHT22;64089;51.478;5.692;2024-03-06T08:16:36;5.90;99.90
42833;DHT22;64089;51.478;5.692;2024-03-06T08:19:03;5.90;99.90
42833;DHT22;64089;51.478;5.692;2024-03-06T08:21:28;5.80;99.90
42833;DHT22;64089;51.478;5.692;2024-03-06T08:23:54;5.80;99.90
42833;DHT22;64089;51.478;5.692;2024-03-06T08:26:19;5.80;99.90
42833;DHT22;64089;51.478;5.692;2024-03-06T08:28:45;5.80;99.90
42833;DHT22;64089;51.478;5.692;2024-03-06T08:31:11;5.90;99.90
42833;DHT22;64089;51.478;5.692;2024-03-06T08:33:36;5.90;99.90
42833;DHT22;64089;51.478;5.692;2024-03-06T08:36:03;6.00;99.90
42833;DHT22;64089;51.478;5.692;2024-03-06T08:38:28;6.00;99.90
42833;DHT22;64089;51.478;5.692;2024-03-06T08:40:54;6.00;99.90
42833;DHT22;64089;51.478;5.692;2024-03-06T08:43:20;6.10;99.90
42833;DHT22;64089;51.478;5.692;2024-03-06T08:45:46;6.20;99.90
42833;DHT22;64089;51.478;5.692;2024-03-06T08:48:11;6.20;99.90
42833;DHT22;64089;51.478;5.692;2024-03-06T08:50:39;6.30;99.90
42833;DHT22;64089;51.478;5.692;2024-03-06T08:53:04;6.30;99.90
42833;DHT22;64089;51.478;5.692;2024-03-06T08:55:30;6.40;99.90
42833;DHT22;64089;51.478;5.692;2024-03-06T08:57:56;6.50;99.90
42833;DHT22;64089;51.478;5.692;2024-03-06T09:00:21;6.70;99.90
42833;DHT22;64089;51.478;5.692;2024-03-06T09:02:47;6.80;99.90
42833;DHT22;64089;51.478;5.692;2024-03-06T09:05:12;6.90;99.90
42833;DHT22;64089;51.478;5.692;2024-03-06T09:07:41;7.00;99.90
42833;DHT22;64089;51.478;5.692;2024-03-06T09:10:08;7.00;99.90
42833;DHT22;64089;51.478;5.692;2024-03-06T09:12:33;7.20;99.90
42833;DHT22;64089;51.478;5.692;2024-03-06T09:15:01;7.30;99.90
42833;DHT22;64089;51.478;5.692;2024-03-06T09:17:27;7.30;99.90
42833;DHT22;64089;51.478;5.692;2024-03-06T09:19:53;7.30;99.90
42833;DHT22;64089;51.478;5.692;2024-03-06T09:22:19;7.40;99.90
42833;DHT22;64089;51.478;5.692;2024-03-06T09:24:45;7.40;99.90
42833;DHT22;64089;51.478;5.692;2024-03-06T09:27:10;7.40;99.90
42833;DHT22;64089;51.478;5.692;2024-03-06T09:29:36;7.50;99.90
42833;DHT22;64089;51.478;5.692;2024-03-06T09:32:02;7.60;99.90
42833;DHT22;64089;51.478;5.692;2024-03-06T09:34:27;7.70;99.90
42833;DHT22;64089;51.478;5.692;2024-03-06T09:36:53;7.70;99.90
42833;DHT22;64089;51.478;5.692;2024-03-06T09:39:19;7.90;99.90
42833;DHT22;64089;51.478;5.692;2024-03-06T09:41:49;8.20;99.90
42833;DHT22;64089;51.478;5.692;2024-03-06T09:44:16;8.40;99.90
42833;DHT22;64089;51.478;5.692;2024-03-06T09:46:43;8.50;99.90
42833;DHT22;64089;51.478;5.692;2024-03-06T09:49:14;8.60;99.90
42833;DHT22;64089;51.478;5.692;2024-03-06T09:51:48;8.80;99.90
42833;DHT22;64089;51.478;5.692;2024-03-06T09:54:19;9.00;99.90
42833;DHT22;64089;51.478;5.692;2024-03-06T09:56:47;9.10;99.90
42833;DHT22;64089;51.478;5.692;2024-03-06T09:59:13;9.20;99.90
42833;DHT22;64089;51.478;5.692;2024-03-06T10:04:20;9.10;99.90
42833;DHT22;64089;51.478;5.692;2024-03-06T10:06:47;9.10;99.90
42833;DHT22;64089;51.478;5.692;2024-03-06T10:09:16;9.00;99.90
42833;DHT22;64089;51.478;5.692;2024-03-06T10:11:42;8.90;99.90
42833;DHT22;64089;51.478;5.692;2024-03-06T10:14:08;8.90;99.90
42833;DHT22;64089;51.478;5.692;2024-03-06T10:16:35;8.80;99.90
42833;DHT22;64089;51.478;5.692;2024-03-06T10:19:17;8.80;99.90
42833;DHT22;64089;51.478;5.692;2024-03-06T10:21:44;8.90;99.90
42833;DHT22;64089;51.478;5.692;2024-03-06T10:24:27;9.00;99.90
42833;DHT22;64089;51.478;5.692;2024-03-06T10:26:54;9.10;99.90
42833;DHT22;64089;51.478;5.692;2024-03-06T10:29:22;9.30;99.90
42833;DHT22;64089;51.478;5.692;2024-03-06T10:31:58;9.40;99.90
42833;DHT22;64089;51.478;5.692;2024-03-06T10:34:25;9.50;99.90
42833;DHT22;64089;51.478;5.692;2024-03-06T10:36:57;9.60;99.90
42833;DHT22;64089;51.478;5.692;2024-03-06T10:39:24;9.80;99.90
42833;DHT22;64089;51.478;5.692;2024-03-06T10:41:56;9.90;99.90
42833;DHT22;64089;51.478;5.692;2024-03-06T10:44:25;10.00;99.90
42833;DHT22;64089;51.478;5.692;2024-03-06T10:47:05;10.10;99.90
42833;DHT22;64089;51.478;5.692;2024-03-06T10:49:32;10.20;99.90
42833;DHT22;64089;51.478;5.692;2024-03-06T10:52:04;10.40;99.90
42833;DHT22;64089;51.478;5.692;2024-03-06T10:54:33;10.40;99.90
42833;DHT22;64089;51.478;5.692;2024-03-06T10:57:00;10.50;99.90
42833;DHT22;64089;51.478;5.692;2024-03-06T10:59:28;10.50;99.90
42833;DHT22;64089;51.478;5.692;2024-03-06T11:01:57;10.60;99.90
42833;DHT22;64089;51.478;5.692;2024-03-06T11:04:25;10.60;99.90
42833;DHT22;64089;51.478;5.692;2024-03-06T11:06:51;10.60;99.90
42833;DHT22;64089;51.478;5.692;2024-03-06T11:09:17;10.70;99.90
42833;DHT22;64089;51.478;5.692;2024-03-06T11:11:50;10.70;99.90
42833;DHT22;64089;51.478;5.692;2024-03-06T11:14:17;10.70;99.90
42833;DHT22;64089;51.478;5.692;2024-03-06T11:17:13;10.80;99.90
42833;DHT22;64089;51.478;5.692;2024-03-06T11:28:17;11.50;99.90
42833;DHT22;64089;51.478;5.692;2024-03-06T11:31:06;11.60;99.90
42833;DHT22;64089;51.478;5.692;2024-03-06T11:33:42;11.80;99.90
42833;DHT22;64089;51.478;5.692;2024-03-06T11:36:24;11.80;99.90
42833;DHT22;64089;51.478;5.692;2024-03-06T11:39:03;12.00;99.90
42833;DHT22;64089;51.478;5.692;2024-03-06T11:41:30;12.20;99.90
42833;DHT22;64089;51.478;5.692;2024-03-06T11:43:59;12.30;99.90
42833;DHT22;64089;51.478;5.692;2024-03-06T11:49:22;12.50;99.90
42833;DHT22;64089;51.478;5.692;2024-03-06T11:51:54;12.70;99.90
42833;DHT22;64089;51.478;5.692;2024-03-06T11:54:20;12.60;99.90
42833;DHT22;64089;51.478;5.692;2024-03-06T11:56:51;12.50;99.90
42833;DHT22;64089;51.478;5.692;2024-03-06T11:59:31;12.60;99.90
42833;DHT22;64089;51.478;5.692;2024-03-06T12:02:04;12.60;99.90
42833;DHT22;64089;51.478;5.692;2024-03-06T12:04:31;12.80;99.90
42833;DHT22;64089;51.478;5.692;2024-03-06T12:06:59;13.00;99.90
42833;DHT22;64089;51.478;5.692;2024-03-06T12:09:25;13.40;99.90
42833;DHT22;64089;51.478;5.692;2024-03-06T12:11:52;13.50;99.90
42833;DHT22;64089;51.478;5.692;2024-03-06T12:14:19;13.50;99.90
42833;DHT22;64089;51.478;5.692;2024-03-06T12:17:00;13.20;99.90
42833;DHT22;64089;51.478;5.692;2024-03-06T12:19:33;12.90;99.90
42833;DHT22;64089;51.478;5.692;2024-03-06T12:22:05;12.60;99.90
42833;DHT22;64089;51.478;5.692;2024-03-06T12:24:31;12.40;99.90
42833;DHT22;64089;51.478;5.692;2024-03-06T12:27:04;12.30;99.90
42833;DHT22;64089;51.478;5.692;2024-03-06T12:29:31;12.20;99.90
42833;DHT22;64089;51.478;5.692;2024-03-06T12:32:04;12.10;99.90
42833;DHT22;64089;51.478;5.692;2024-03-06T12:34:30;12.00;99.90
42833;DHT22;64089;51.478;5.692;2024-03-06T12:36:56;11.90;99.90
42833;DHT22;64089;51.478;5.692;2024-03-06T12:39:23;11.70;99.90
42833;DHT22;64089;51.478;5.692;2024-03-06T12:41:52;11.70;99.90
42833;DHT22;64089;51.478;5.692;2024-03-06T12:44:21;11.70;99.90
42833;DHT22;64089;51.478;5.692;2024-03-06T12:46:46;11.80;99.90
42833;DHT22;64089;51.478;5.692;2024-03-06T12:49:12;11.80;99.90
42833;DHT22;64089;51.478;5.692;2024-03-06T12:51:40;11.90;99.90
42833;DHT22;64089;51.478;5.692;2024-03-06T12:54:06;12.10;99.90
42833;DHT22;64089;51.478;5.692;2024-03-06T12:56:33;12.20;99.90
42833;DHT22;64089;51.478;5.692;2024-03-06T12:58:59;12.50;99.90
42833;DHT22;64089;51.478;5.692;2024-03-06T13:01:25;12.80;99.90
42833;DHT22;64089;51.478;5.692;2024-03-06T13:03:50;13.10;99.90
42833;DHT22;64089;51.478;5.692;2024-03-06T13:06:16;13.30;99.90
42833;DHT22;64089;51.478;5.692;2024-03-06T13:08:41;13.50;99.90
42833;DHT22;64089;51.478;5.692;2024-03-06T13:11:07;13.40;99.90
42833;DHT22;64089;51.478;5.692;2024-03-06T13:13:34;13.70;99.90
42833;DHT22;64089;51.478;5.692;2024-03-06T13:16:00;13.80;99.90
42833;DHT22;64089;51.478;5.692;2024-03-06T13:18:26;14.00;99.90
42833;DHT22;64089;51.478;5.692;2024-03-06T13:20:52;14.10;99.90
42833;DHT22;64089;51.478;5.692;2024-03-06T13:23:18;14.10;99.90
42833;DHT22;64089;51.478;5.692;2024-03-06T13:25:43;14.10;99.90
42833;DHT22;64089;51.478;5.692;2024-03-06T13:28:11;13.90;99.90
42833;DHT22;64089;51.478;5.692;2024-03-06T13:30:37;13.70;99.90
42833;DHT22;64089;51.478;5.692;2024-03-06T13:33:04;13.40;99.90
42833;DHT22;64089;51.478;5.692;2024-03-06T13:35:30;13.20;99.90
42833;DHT22;64089;51.478;5.692;2024-03-06T13:37:56;13.00;99.90
42833;DHT22;64089;51.478;5.692;2024-03-06T13:40:21;12.90;99.90
42833;DHT22;64089;51.478;5.692;2024-03-06T13:42:47;12.80;99.90
42833;DHT22;64089;51.478;5.692;2024-03-06T13:45:13;12.90;99.90
42833;DHT22;64089;51.478;5.692;2024-03-06T13:47:40;12.90;99.90
42833;DHT22;64089;51.478;5.692;2024-03-06T13:50:08;12.90;99.90
42833;DHT22;64089;51.478;5.692;2024-03-06T13:52:34;12.90;99.90
42833;DHT22;64089;51.478;5.692;2024-03-06T13:55:00;12.80;99.90
42833;DHT22;64089;51.478;5.692;2024-03-06T13:57:33;12.80;99.90
42833;DHT22;64089;51.478;5.692;2024-03-06T14:00:09;12.70;99.90
42833;DHT22;64089;51.478;5.692;2024-03-06T14:02:39;12.80;99.90
42833;DHT22;64089;51.478;5.692;2024-03-06T14:05:05;12.80;99.90
42833;DHT22;64089;51.478;5.692;2024-03-06T14:07:33;12.80;99.90
42833;DHT22;64089;51.478;5.692;2024-03-06T14:09:59;12.80;99.90
42833;DHT22;64089;51.478;5.692;2024-03-06T14:12:24;12.80;99.90
42833;DHT22;64089;51.478;5.692;2024-03-06T14:14:50;12.90;99.90
42833;DHT22;64089;51.478;5.692;2024-03-06T14:17:15;12.90;99.90
42833;DHT22;64089;51.478;5.692;2024-03-06T14:19:41;13.00;99.90
42833;DHT22;64089;51.478;5.692;2024-03-06T14:22:08;13.10;99.90
42833;DHT22;64089;51.478;5.692;2024-03-06T14:24:34;13.20;99.90
42833;DHT22;64089;51.478;5.692;2024-03-06T14:27:01;13.20;99.90
42833;DHT22;64089;51.478;5.692;2024-03-06T14:29:27;13.30;99.90
42833;DHT22;64089;51.478;5.692;2024-03-06T14:31:53;13.50;99.90
42833;DHT22;64089;51.478;5.692;2024-03-06T14:34:20;13.50;99.90
42833;DHT22;64089;51.478;5.692;2024-03-06T14:36:46;13.40;99.90
42833;DHT22;64089;51.478;5.692;2024-03-06T14:39:12;13.40;99.90
42833;DHT22;64089;51.478;5.692;2024-03-06T14:41:39;13.30;99.90
42833;DHT22;64089;51.478;5.692;2024-03-06T14:44:07;13.10;99.90
42833;DHT22;64089;51.478;5.692;2024-03-06T14:46:33;12.90;99.90
42833;DHT22;64089;51.478;5.692;2024-03-06T14:48:59;12.70;99.90
42833;DHT22;64089;51.478;5.692;2024-03-06T14:51:28;12.50;99.90
42833;DHT22;64089;51.478;5.692;2024-03-06T14:53:53;12.30;99.90
42833;DHT22;64089;51.478;5.692;2024-03-06T14:56:19;12.20;99.90
42833;DHT22;64089;51.478;5.692;2024-03-06T14:58:47;12.10;99.90
42833;DHT22;64089;51.478;5.692;2024-03-06T15:01:12;12.00;99.90
42833;DHT22;64089;51.478;5.692;2024-03-06T15:03:41;12.10;99.90
42833;DHT22;64089;51.478;5.692;2024-03-06T15:06:07;12.10;99.90
42833;DHT22;64089;51.478;5.692;2024-03-06T15:08:33;12.30;99.90
42833;DHT22;64089;51.478;5.692;2024-03-06T15:11:00;12.30;99.90
42833;DHT22;64089;51.478;5.692;2024-03-06T15:13:25;12.40;99.90
42833;DHT22;64089;51.478;5.692;2024-03-06T15:15:51;12.70;99.90
42833;DHT22;64089;51.478;5.692;2024-03-06T15:18:17;13.00;99.90
42833;DHT22;64089;51.478;5.692;2024-03-06T15:20:43;13.30;99.90
42833;DHT22;64089;51.478;5.692;2024-03-06T15:23:09;13.50;99.90
42833;DHT22;64089;51.478;5.692;2024-03-06T15:25:36;13.50;99.90
42833;DHT22;64089;51.478;5.692;2024-03-06T15:28:02;13.50;99.90
42833;DHT22;64089;51.478;5.692;2024-03-06T15:30:28;13.30;99.90
42833;DHT22;64089;51.478;5.692;2024-03-06T15:32:56;13.30;99.90
42833;DHT22;64089;51.478;5.692;2024-03-06T15:35:21;13.20;99.90
42833;DHT22;64089;51.478;5.692;2024-03-06T15:37:48;13.20;99.90
42833;DHT22;64089;51.478;5.692;2024-03-06T15:40:14;13.10;99.90
42833;DHT22;64089;51.478;5.692;2024-03-06T15:42:40;13.10;99.90
42833;DHT22;64089;51.478;5.692;2024-03-06T15:45:05;13.00;99.90
42833;DHT22;64089;51.478;5.692;2024-03-06T15:47:31;12.90;99.90
42833;DHT22;64089;51.478;5.692;2024-03-06T15:49:59;12.80;99.90
42833;DHT22;64089;51.478;5.692;2024-03-06T15:52:24;12.60;99.90
42833;DHT22;64089;51.478;5.692;2024-03-06T15:54:50;12.50;99.90